Time;durP1;ratioP1;P1;durP2;ratioP2;P2;SDS_P1;SDS_P2;PMS_P1;PMS_P2;Temp;Humidity;BMP_temperature;BMP_pressure;BME280_temperature;BME280_humidity;BME280_pressure;Samples;Min_cycle;Max_cycle;Signal;HPM_P1;HPM_P2
2023/05/04 00:01:22;;;;;;;3.40;1.30;;;;;;;;;;4977671;28;20033;-79
2023/05/04 00:03:48;;;;;;;2.00;1.17;;;;;;;;;;4974174;28;20043;-79
2023/05/04 00:06:14;;;;;;;5.47;1.08;;;;;;;;;;4966374;28;20035;-79
2023/05/04 00:08:40;;;;;;;3.30;1.05;;;;;;;;;;4976360;28;20042;-79
2023/05/04 00:11:06;;;;;;;3.42;1.08;;;;;;;;;;4975801;28;20405;-79
2023/05/04 00:13:32;;;;;;;3.80;1.35;;;;;;;;;;4972733;28;20030;-79
2023/05/04 00:15:58;;;;;;;4.47;1.02;;;;;;;;;;4977059;28;20030;-79
2023/05/04 00:18:24;;;;;;;2.45;1.10;;;;;;;;;;4975385;28;20184;-79
2023/05/04 00:20:50;;;;;;;3.55;1.33;;;;;;;;;;4970225;28;20042;-79
2023/05/04 00:23:16;;;;;;;1.38;1.08;;;;;;;;;;4974870;28;20093;-79
2023/05/04 00:25:42;;;;;;;1.00;0.88;;;;;;;;;;4978279;28;20007;-79
2023/05/04 00:28:08;;;;;;;1.88;1.10;;;;;;;;;;4977015;28;20025;-79
2023/05/04 00:30:34;;;;;;;0.95;0.85;;;;;;;;;;4975458;28;20014;-79
2023/05/04 00:33:00;;;;;;;1.77;1.00;;;;;;;;;;4978595;28;20037;-79
2023/05/04 00:35:28;;;;;;;3.08;1.50;;;;;;;;;;4976166;28;20037;-79
2023/05/04 00:37:54;;;;;;;1.75;0.98;;;;;;;;;;4970274;28;20023;-79
2023/05/04 00:40:20;;;;;;;1.23;0.90;;;;;;;;;;4980495;28;20040;-79
2023/05/04 00:42:46;;;;;;;2.78;1.45;;;;;;;;;;4978137;28;20027;-79
2023/05/04 00:45:13;;;;;;;0.93;0.82;;;;;;;;;;4969313;28;20022;-79
2023/05/04 00:47:40;;;;;;;1.45;1.00;;;;;;;;;;4978458;28;20088;-79
2023/05/04 00:50:07;;;;;;;1.05;0.80;;;;;;;;;;4983721;28;20019;-80
2023/05/04 00:52:34;;;;;;;3.53;1.00;;;;;;;;;;4979885;28;20800;-79
2023/05/04 00:55:00;;;;;;;1.15;0.90;;;;;;;;;;4972031;28;20023;-79
2023/05/04 00:57:26;;;;;;;1.10;1.00;;;;;;;;;;4975409;28;20528;-79
2023/05/04 00:59:53;;;;;;;0.68;0.63;;;;;;;;;;4975238;28;20092;-79
2023/05/04 01:02:20;;;;;;;1.88;1.08;;;;;;;;;;4974291;28;20022;-79
2023/05/04 01:04:46;;;;;;;1.00;0.80;;;;;;;;;;4967208;28;21441;-79
2023/05/04 01:07:22;;;;;;;2.10;1.13;;;;;;;;;;4975901;28;20475;-79
2023/05/04 01:09:53;;;;;;;0.93;0.88;;;;;;;;;;4975283;28;20029;-79
2023/05/04 01:12:25;;;;;;;2.13;1.33;;;;;;;;;;4980465;28;20037;-79
2023/05/04 01:14:52;;;;;;;1.23;1.08;;;;;;;;;;4976280;28;20044;-79
2023/05/04 01:17:19;;;;;;;2.90;1.00;;;;;;;;;;4973128;28;20037;-79
2023/05/04 01:19:45;;;;;;;1.63;1.10;;;;;;;;;;4975241;28;20030;-79
2023/05/04 01:22:11;;;;;;;2.45;0.93;;;;;;;;;;4975719;28;20030;-79
2023/05/04 01:24:37;;;;;;;0.77;0.77;;;;;;;;;;4980024;28;20030;-80
2023/05/04 01:27:13;;;;;;;1.92;0.80;;;;;;;;;;4975510;28;20141;-79
2023/05/04 01:29:44;;;;;;;1.58;0.88;;;;;;;;;;4975241;28;20037;-79
2023/05/04 01:32:11;;;;;;;1.17;0.95;;;;;;;;;;4978338;28;20027;-79
2023/05/04 01:34:39;;;;;;;0.93;0.70;;;;;;;;;;4971487;28;20058;-79
2023/05/04 01:37:05;;;;;;;1.88;0.68;;;;;;;;;;4976306;28;20440;-79
2023/05/04 01:39:31;;;;;;;0.80;0.60;;;;;;;;;;4976441;28;20034;-80
2023/05/04 01:41:57;;;;;;;0.90;0.80;;;;;;;;;;4978689;28;20040;-79
2023/05/04 01:44:26;;;;;;;0.88;0.77;;;;;;;;;;4981879;28;20030;-79
2023/05/04 01:46:52;;;;;;;1.20;0.50;;;;;;;;;;4969450;28;20491;-79
2023/05/04 01:49:18;;;;;;;0.68;0.68;;;;;;;;;;4971475;28;20069;-79
2023/05/04 01:51:45;;;;;;;0.90;0.80;;;;;;;;;;4975167;28;20413;-79
2023/05/04 01:54:11;;;;;;;0.60;0.60;;;;;;;;;;4971481;28;20026;-80
2023/05/04 01:56:37;;;;;;;1.38;0.75;;;;;;;;;;4982439;28;20092;-79
2023/05/04 01:59:03;;;;;;;1.80;0.80;;;;;;;;;;4975822;28;20045;-80
2023/05/04 02:01:29;;;;;;;0.82;0.80;;;;;;;;;;4975848;28;20067;-79
2023/05/04 02:03:55;;;;;;;1.83;0.88;;;;;;;;;;4976205;28;20049;-79
2023/05/04 02:06:21;;;;;;;0.88;0.73;;;;;;;;;;4979771;28;20062;-79
2023/05/04 02:08:47;;;;;;;1.25;1.02;;;;;;;;;;4978848;28;20520;-79
2023/05/04 02:11:15;;;;;;;1.52;0.77;;;;;;;;;;4973937;28;20045;-78
2023/05/04 02:13:41;;;;;;;0.63;0.60;;;;;;;;;;4970234;28;20097;-79
2023/05/04 02:16:07;;;;;;;1.00;0.90;;;;;;;;;;4977772;28;20065;-80
2023/05/04 02:18:33;;;;;;;0.73;0.60;;;;;;;;;;4977870;28;20037;-79
2023/05/04 02:20:59;;;;;;;0.80;0.70;;;;;;;;;;4981791;28;20022;-79
2023/05/04 02:23:25;;;;;;;1.88;0.88;;;;;;;;;;4976543;28;20031;-79
2023/05/04 02:25:51;;;;;;;0.43;0.43;;;;;;;;;;4974233;28;20041;-79
2023/05/04 02:28:17;;;;;;;0.50;0.50;;;;;;;;;;4978456;28;20117;-79
2023/05/04 02:30:43;;;;;;;0.90;0.80;;;;;;;;;;4973259;28;20026;-79
2023/05/04 02:33:09;;;;;;;0.98;0.68;;;;;;;;;;4976917;28;20049;-79
2023/05/04 02:35:35;;;;;;;1.08;0.70;;;;;;;;;;4972308;28;20158;-79
2023/05/04 02:38:01;;;;;;;0.82;0.80;;;;;;;;;;4977652;28;20063;-79
2023/05/04 02:40:27;;;;;;;1.58;0.90;;;;;;;;;;4975250;28;20034;-79
2023/05/04 02:42:53;;;;;;;4.82;1.00;;;;;;;;;;4973834;28;20077;-79
2023/05/04 02:45:19;;;;;;;1.73;0.65;;;;;;;;;;4973887;28;20030;-79
2023/05/04 02:47:45;;;;;;;2.50;0.70;;;;;;;;;;4973820;28;20105;-79
2023/05/04 02:50:11;;;;;;;1.13;0.80;;;;;;;;;;4970031;28;20031;-79
2023/05/04 02:52:37;;;;;;;0.95;0.82;;;;;;;;;;4976252;28;20041;-79
2023/05/04 02:55:03;;;;;;;1.40;0.90;;;;;;;;;;4976902;28;20030;-80
2023/05/04 02:57:29;;;;;;;0.60;0.60;;;;;;;;;;4971243;28;20026;-79
2023/05/04 02:59:55;;;;;;;0.80;0.65;;;;;;;;;;4969726;28;20169;-79
2023/05/04 03:02:21;;;;;;;1.27;1.02;;;;;;;;;;4975002;28;20117;-79
2023/05/04 03:04:47;;;;;;;1.08;0.70;;;;;;;;;;4972341;28;20059;-79
2023/05/04 03:07:13;;;;;;;0.55;0.55;;;;;;;;;;4972323;28;20429;-79
2023/05/04 03:09:39;;;;;;;1.10;0.80;;;;;;;;;;4978555;28;20466;-79
2023/05/04 03:12:05;;;;;;;1.60;0.90;;;;;;;;;;4974012;28;20427;-79
2023/05/04 03:14:31;;;;;;;0.50;0.50;;;;;;;;;;4983921;28;20026;-79
2023/05/04 03:16:58;;;;;;;0.88;0.70;;;;;;;;;;4977446;28;20031;-79
2023/05/04 03:19:24;;;;;;;1.25;0.98;;;;;;;;;;4971819;28;20118;-79
2023/05/04 03:21:50;;;;;;;1.60;0.93;;;;;;;;;;4970462;28;20385;-79
2023/05/04 03:24:17;;;;;;;1.58;0.80;;;;;;;;;;4974643;28;20050;-79
2023/05/04 03:26:44;;;;;;;1.67;0.55;;;;;;;;;;4976702;28;20029;-79
2023/05/04 03:29:10;;;;;;;2.28;0.75;;;;;;;;;;4976259;28;20019;-79
2023/05/04 03:31:36;;;;;;;1.08;0.80;;;;;;;;;;4974026;28;20504;-80
2023/05/04 03:34:02;;;;;;;0.50;0.50;;;;;;;;;;4980405;28;20037;-79
2023/05/04 03:36:28;;;;;;;0.70;0.52;;;;;;;;;;4976105;28;20556;-79
2023/05/04 03:38:54;;;;;;;1.05;0.70;;;;;;;;;;4981654;28;20049;-79
2023/05/04 03:41:20;;;;;;;0.85;0.82;;;;;;;;;;4974167;28;20023;-79
2023/05/04 03:43:46;;;;;;;0.55;0.55;;;;;;;;;;4977874;28;20446;-78
2023/05/04 03:46:12;;;;;;;0.75;0.75;;;;;;;;;;4977656;28;20411;-78
2023/05/04 03:48:38;;;;;;;0.98;0.70;;;;;;;;;;4978802;28;20053;-79
2023/05/04 03:51:05;;;;;;;0.70;0.70;;;;;;;;;;4982162;28;20085;-79
2023/05/04 03:53:33;;;;;;;0.85;0.65;;;;;;;;;;4975642;28;20034;-79
2023/05/04 03:55:59;;;;;;;0.50;0.50;;;;;;;;;;4977159;28;20067;-79
2023/05/04 03:58:25;;;;;;;2.00;0.82;;;;;;;;;;4972753;28;20595;-78
2023/05/04 04:00:51;;;;;;;1.85;0.75;;;;;;;;;;4981845;28;20033;-79
2023/05/04 04:03:17;;;;;;;1.00;0.50;;;;;;;;;;4972655;28;20027;-79
2023/05/04 04:05:44;;;;;;;0.90;0.70;;;;;;;;;;4975769;28;20109;-77
2023/05/04 04:08:10;;;;;;;1.08;0.70;;;;;;;;;;4972210;28;20374;-78
2023/05/04 04:10:36;;;;;;;0.57;0.50;;;;;;;;;;4977944;28;20026;-79
2023/05/04 04:13:02;;;;;;;0.60;0.60;;;;;;;;;;4975386;28;20050;-78
2023/05/04 04:15:28;;;;;;;1.13;0.90;;;;;;;;;;4973805;28;21206;-76
2023/05/04 04:17:54;;;;;;;1.23;0.93;;;;;;;;;;4975119;28;20574;-77
2023/05/04 04:20:20;;;;;;;1.52;0.88;;;;;;;;;;4974691;28;20027;-76
2023/05/04 04:22:45;;;;;;;0.77;0.70;;;;;;;;;;4978580;28;20023;-77
2023/05/04 04:25:12;;;;;;;1.17;0.70;;;;;;;;;;4976114;28;20094;-77
2023/05/04 04:27:38;;;;;;;2.67;0.80;;;;;;;;;;4980512;28;20033;-77
2023/05/04 04:30:04;;;;;;;3.60;0.60;;;;;;;;;;4974381;28;20014;-77
2023/05/04 04:32:30;;;;;;;2.78;1.13;;;;;;;;;;4970953;28;20038;-77
2023/05/04 04:34:57;;;;;;;1.27;0.82;;;;;;;;;;4968711;28;20121;-76
2023/05/04 04:37:23;;;;;;;0.80;0.80;;;;;;;;;;4976172;28;20046;-77
2023/05/04 04:39:49;;;;;;;0.98;0.88;;;;;;;;;;4971506;28;20029;-81
2023/05/04 04:42:15;;;;;;;5.30;0.70;;;;;;;;;;4973585;28;20049;-75
2023/05/04 04:44:41;;;;;;;1.90;1.17;;;;;;;;;;4979948;28;20034;-77
2023/05/04 04:47:07;;;;;;;1.33;1.02;;;;;;;;;;4974968;28;20489;-79
2023/05/04 04:49:33;;;;;;;1.10;1.00;;;;;;;;;;4974734;28;20101;-76
2023/05/04 04:52:09;;;;;;;1.63;0.88;;;;;;;;;;4977290;28;20026;-77
2023/05/04 04:54:35;;;;;;;0.82;0.73;;;;;;;;;;4979757;28;20113;-75
2023/05/04 04:57:01;;;;;;;1.50;0.90;;;;;;;;;;4979428;28;20057;-78
2023/05/04 04:59:27;;;;;;;0.85;0.82;;;;;;;;;;4975689;28;20396;-76
2023/05/04 05:01:53;;;;;;;0.50;0.50;;;;;;;;;;4974561;28;20030;-76
2023/05/04 05:04:21;;;;;;;3.65;0.85;;;;;;;;;;4970279;28;20176;-75
2023/05/04 05:06:47;;;;;;;0.95;0.77;;;;;;;;;;4975105;28;20027;-76
2023/05/04 05:09:13;;;;;;;1.58;0.65;;;;;;;;;;4976600;28;20034;-76
2023/05/04 05:11:39;;;;;;;0.60;0.60;;;;;;;;;;4974066;28;20050;-76
2023/05/04 05:14:05;;;;;;;3.17;1.05;;;;;;;;;;4976184;28;20037;-76
2023/05/04 05:16:31;;;;;;;1.10;0.55;;;;;;;;;;4969923;28;20025;-76
2023/05/04 05:19:00;;;;;;;1.67;0.88;;;;;;;;;;4987508;28;20080;-77
2023/05/04 05:21:26;;;;;;;0.93;0.70;;;;;;;;;;4977940;28;20030;-77
2023/05/04 05:23:52;;;;;;;0.77;0.75;;;;;;;;;;4973048;28;20110;-78
2023/05/04 05:26:18;;;;;;;0.80;0.75;;;;;;;;;;4971683;28;20022;-78
2023/05/04 05:28:45;;;;;;;1.20;0.73;;;;;;;;;;4977134;28;20026;-77
2023/05/04 05:31:11;;;;;;;1.83;0.90;;;;;;;;;;4977439;28;20498;-77
2023/05/04 05:33:38;;;;;;;3.03;0.77;;;;;;;;;;4976059;28;20065;-77
2023/05/04 05:36:04;;;;;;;1.20;0.82;;;;;;;;;;4969701;28;20495;-77
2023/05/04 05:38:30;;;;;;;1.27;0.55;;;;;;;;;;4967711;28;20014;-77
2023/05/04 05:40:56;;;;;;;0.85;0.75;;;;;;;;;;4968453;28;20037;-76
2023/05/04 05:43:22;;;;;;;0.77;0.60;;;;;;;;;;4971869;28;20114;-76
2023/05/04 05:45:48;;;;;;;0.43;0.43;;;;;;;;;;4978953;28;20030;-76
2023/05/04 05:48:15;;;;;;;1.25;0.50;;;;;;;;;;4974754;28;20085;-76
2023/05/04 05:50:40;;;;;;;1.42;0.65;;;;;;;;;;4976515;28;20029;-77
2023/05/04 05:53:06;;;;;;;7.05;0.90;;;;;;;;;;4974045;28;20030;-76
2023/05/04 05:55:32;;;;;;;0.90;0.70;;;;;;;;;;4967829;28;20035;-76
2023/05/04 05:57:58;;;;;;;0.98;0.65;;;;;;;;;;4972894;28;20038;-77
2023/05/04 06:00:24;;;;;;;0.90;0.85;;;;;;;;;;4979408;28;20041;-77
2023/05/04 06:02:51;;;;;;;1.35;0.77;;;;;;;;;;4978338;28;20030;-78
2023/05/04 06:05:17;;;;;;;2.97;0.65;;;;;;;;;;4975618;28;20137;-77
2023/05/04 06:07:43;;;;;;;1.77;1.00;;;;;;;;;;4967662;28;20026;-77
2023/05/04 06:10:09;;;;;;;1.58;0.80;;;;;;;;;;4983202;28;20030;-77
2023/05/04 06:12:35;;;;;;;0.50;0.47;;;;;;;;;;4970523;28;20370;-77
2023/05/04 06:15:01;;;;;;;0.98;0.60;;;;;;;;;;4975309;28;20097;-77
2023/05/04 06:17:27;;;;;;;1.15;0.85;;;;;;;;;;4976047;28;20022;-77
2023/05/04 06:19:53;;;;;;;0.73;0.70;;;;;;;;;;4975294;28;20370;-76
2023/05/04 06:22:19;;;;;;;2.15;0.80;;;;;;;;;;4972723;28;20030;-77
2023/05/04 06:24:45;;;;;;;1.75;1.10;;;;;;;;;;4973269;28;20102;-77
2023/05/04 06:27:11;;;;;;;0.50;0.50;;;;;;;;;;4972518;28;20019;-77
2023/05/04 06:29:39;;;;;;;0.63;0.50;;;;;;;;;;4968530;28;20039;-77
2023/05/04 06:32:05;;;;;;;2.20;1.08;;;;;;;;;;4974236;28;20041;-77
2023/05/04 06:34:31;;;;;;;0.73;0.68;;;;;;;;;;4979872;28;20121;-78
2023/05/04 06:36:57;;;;;;;0.50;0.50;;;;;;;;;;4979142;28;20027;-77
2023/05/04 06:39:23;;;;;;;0.77;0.73;;;;;;;;;;4965868;28;20029;-76
2023/05/04 06:41:49;;;;;;;1.27;0.82;;;;;;;;;;4974011;28;20043;-77
2023/05/04 06:44:16;;;;;;;1.17;0.57;;;;;;;;;;4976104;28;20081;-77
2023/05/04 06:46:42;;;;;;;0.70;0.40;;;;;;;;;;4984621;28;20564;-76
2023/05/04 06:49:08;;;;;;;1.25;0.77;;;;;;;;;;4977345;28;20023;-77
2023/05/04 06:51:36;;;;;;;1.92;0.80;;;;;;;;;;4978656;28;20358;-77
2023/05/04 06:54:02;;;;;;;1.58;0.70;;;;;;;;;;4970033;28;20748;-77
2023/05/04 06:56:28;;;;;;;0.70;0.70;;;;;;;;;;4986658;28;20030;-77
2023/05/04 06:58:54;;;;;;;1.55;0.70;;;;;;;;;;4981662;28;20105;-76
2023/05/04 07:01:20;;;;;;;1.10;0.85;;;;;;;;;;4977341;28;20025;-76
2023/05/04 07:03:46;;;;;;;0.50;0.50;;;;;;;;;;4975784;28;20483;-77
2023/05/04 07:06:12;;;;;;;2.40;1.30;;;;;;;;;;4984464;28;20639;-77
2023/05/04 07:08:38;;;;;;;0.90;0.63;;;;;;;;;;4980781;28;20023;-77
2023/05/04 07:11:04;;;;;;;1.73;0.68;;;;;;;;;;4987532;28;20088;-77
2023/05/04 07:13:31;;;;;;;0.52;0.52;;;;;;;;;;4975702;28;20437;-77
2023/05/04 07:15:57;;;;;;;0.80;0.60;;;;;;;;;;4971849;28;20072;-77
2023/05/04 07:18:23;;;;;;;0.82;0.65;;;;;;;;;;4979426;28;20025;-77
2023/05/04 07:20:49;;;;;;;0.50;0.50;;;;;;;;;;4981307;28;20121;-77
2023/05/04 07:23:15;;;;;;;1.63;1.00;;;;;;;;;;4975229;28;20030;-77
2023/05/04 07:25:41;;;;;;;1.15;0.75;;;;;;;;;;4979159;28;20030;-77
2023/05/04 07:28:07;;;;;;;1.50;0.80;;;;;;;;;;4981000;28;20065;-77
2023/05/04 07:30:33;;;;;;;3.20;1.20;;;;;;;;;;4986895;28;20030;-78
2023/05/04 07:32:59;;;;;;;2.53;0.68;;;;;;;;;;4978263;28;20046;-78
2023/05/04 07:35:28;;;;;;;0.68;0.63;;;;;;;;;;4979122;28;20022;-78
2023/05/04 07:37:54;;;;;;;0.93;0.82;;;;;;;;;;4984347;28;20357;-77
2023/05/04 07:40:20;;;;;;;0.65;0.65;;;;;;;;;;4985218;28;20042;-78
2023/05/04 07:42:46;;;;;;;2.83;0.70;;;;;;;;;;4987780;28;20381;-77
2023/05/04 07:45:14;;;;;;;0.77;0.63;;;;;;;;;;4986156;28;20026;-78
2023/05/04 07:47:40;;;;;;;1.55;0.68;;;;;;;;;;4980889;28;20161;-76
2023/05/04 07:50:07;;;;;;;3.17;0.65;;;;;;;;;;4985803;28;20033;-77
2023/05/04 07:52:33;;;;;;;0.88;0.75;;;;;;;;;;4978241;28;20125;-77
2023/05/04 07:54:59;;;;;;;0.82;0.80;;;;;;;;;;4968332;28;20043;-77
2023/05/04 07:57:25;;;;;;;0.70;0.70;;;;;;;;;;4969822;28;20026;-76
2023/05/04 07:59:54;;;;;;;1.45;0.60;;;;;;;;;;4976838;28;20492;-78
2023/05/04 08:02:20;;;;;;;1.17;0.60;;;;;;;;;;4981114;28;20030;-78
2023/05/04 08:04:46;;;;;;;1.08;0.50;;;;;;;;;;4980627;28;20108;-77
2023/05/04 08:07:15;;;;;;;2.08;0.88;;;;;;;;;;4981516;28;20030;-77
2023/05/04 08:09:41;;;;;;;1.50;0.80;;;;;;;;;;4981246;28;20057;-77
2023/05/04 08:12:07;;;;;;;0.65;0.50;;;;;;;;;;4975295;28;20061;-75
2023/05/04 08:14:33;;;;;;;0.93;0.80;;;;;;;;;;4980585;28;20062;-77
2023/05/04 08:17:00;;;;;;;1.15;0.73;;;;;;;;;;4974632;28;20031;-76
2023/05/04 08:19:26;;;;;;;0.60;0.60;;;;;;;;;;4970797;28;20109;-76
2023/05/04 08:21:52;;;;;;;0.95;0.60;;;;;;;;;;4977259;28;20092;-76
2023/05/04 08:24:18;;;;;;;0.90;0.68;;;;;;;;;;4983946;28;20030;-76
2023/05/04 08:26:44;;;;;;;1.83;1.20;;;;;;;;;;4974420;28;20109;-77
2023/05/04 08:29:10;;;;;;;0.98;0.63;;;;;;;;;;4975469;28;20430;-77
2023/05/04 08:31:36;;;;;;;1.98;0.68;;;;;;;;;;4966651;28;20027;-77
2023/05/04 08:34:02;;;;;;;0.60;0.55;;;;;;;;;;4978508;28;20030;-77
2023/05/04 08:36:29;;;;;;;1.17;0.70;;;;;;;;;;4984145;28;20084;-77
2023/05/04 08:38:55;;;;;;;2.50;0.70;;;;;;;;;;4978178;28;20033;-77
2023/05/04 08:41:24;;;;;;;1.10;1.00;;;;;;;;;;4973482;28;20047;-77
2023/05/04 08:43:50;;;;;;;0.60;0.60;;;;;;;;;;4972538;28;20032;-77
2023/05/04 08:46:16;;;;;;;1.00;0.70;;;;;;;;;;4983008;28;20030;-77
2023/05/04 08:48:43;;;;;;;1.02;0.50;;;;;;;;;;4979999;28;20041;-77
2023/05/04 08:51:10;;;;;;;0.70;0.55;;;;;;;;;;4971798;28;20038;-78
2023/05/04 08:53:37;;;;;;;1.23;0.82;;;;;;;;;;4973462;28;20572;-78
2023/05/04 08:56:08;;;;;;;1.63;0.95;;;;;;;;;;4978233;28;20084;-78
2023/05/04 08:58:36;;;;;;;1.20;0.82;;;;;;;;;;4979805;28;20031;-76
2023/05/04 09:01:03;;;;;;;0.80;0.80;;;;;;;;;;4974171;28;20109;-76
2023/05/04 09:03:30;;;;;;;1.52;0.70;;;;;;;;;;4972780;28;20134;-77
2023/05/04 09:05:56;;;;;;;0.70;0.70;;;;;;;;;;4971608;28;20174;-77
2023/05/04 09:08:22;;;;;;;1.02;0.90;;;;;;;;;;4966906;28;20118;-77
2023/05/04 09:10:48;;;;;;;1.40;0.70;;;;;;;;;;4982662;28;20018;-78
2023/05/04 09:13:14;;;;;;;1.20;0.70;;;;;;;;;;4980660;28;20168;-78
2023/05/04 09:15:41;;;;;;;0.70;0.70;;;;;;;;;;4978644;28;20461;-78
2023/05/04 09:18:08;;;;;;;0.77;0.70;;;;;;;;;;4975510;28;20729;-77
2023/05/04 09:20:45;;;;;;;1.23;0.73;;;;;;;;;;4971528;28;20202;-76
2023/05/04 09:23:12;;;;;;;0.77;0.77;;;;;;;;;;4977105;28;20059;-77
2023/05/04 09:25:50;;;;;;;0.70;0.70;;;;;;;;;;4967929;28;20018;-76
2023/05/04 09:28:17;;;;;;;1.02;0.98;;;;;;;;;;4977671;28;20026;-76
2023/05/04 09:30:43;;;;;;;1.23;0.80;;;;;;;;;;4974284;28;20038;-76
2023/05/04 09:33:10;;;;;;;1.02;0.90;;;;;;;;;;4968650;28;20454;-76
2023/05/04 09:35:40;;;;;;;1.55;0.95;;;;;;;;;;4975293;28;20050;-76
2023/05/04 09:38:06;;;;;;;0.93;0.90;;;;;;;;;;4970725;28;20034;-77
2023/05/04 09:40:33;;;;;;;0.90;0.90;;;;;;;;;;4976317;28;20053;-77
2023/05/04 09:42:59;;;;;;;0.77;0.57;;;;;;;;;;4975435;28;20092;-77
2023/05/04 09:45:26;;;;;;;0.80;0.73;;;;;;;;;;4974315;28;20042;-76
2023/05/04 09:47:53;;;;;;;1.20;0.70;;;;;;;;;;4971674;28;20365;-77
2023/05/04 09:50:25;;;;;;;0.85;0.75;;;;;;;;;;4977893;28;20427;-77
2023/05/04 09:52:51;;;;;;;1.42;0.80;;;;;;;;;;4979019;28;20093;-76
2023/05/04 09:55:18;;;;;;;0.70;0.70;;;;;;;;;;4981143;28;20035;-77
2023/05/04 09:57:45;;;;;;;2.53;1.38;;;;;;;;;;4975204;28;20564;-77
2023/05/04 10:00:13;;;;;;;0.88;0.80;;;;;;;;;;4973325;28;20039;-76
2023/05/04 10:02:43;;;;;;;0.85;0.60;;;;;;;;;;4966524;28;20114;-76
2023/05/04 10:05:09;;;;;;;1.17;0.80;;;;;;;;;;4977578;28;20043;-77
2023/05/04 10:07:38;;;;;;;1.65;0.68;;;;;;;;;;4975741;28;21543;-77
2023/05/04 10:10:06;;;;;;;0.90;0.90;;;;;;;;;;4976357;28;20558;-76
2023/05/04 10:12:32;;;;;;;1.27;0.80;;;;;;;;;;4956780;28;20081;-76
2023/05/04 10:14:58;;;;;;;0.77;0.70;;;;;;;;;;4978574;28;20034;-76
2023/05/04 10:17:27;;;;;;;4.82;0.90;;;;;;;;;;4977990;28;20117;-77
2023/05/04 10:20:09;;;;;;;0.55;0.55;;;;;;;;;;4969533;28;20027;-77
2023/05/04 10:22:44;;;;;;;0.73;0.70;;;;;;;;;;4976992;28;20030;-77
2023/05/04 10:25:23;;;;;;;0.90;0.80;;;;;;;;;;4982122;28;20527;-74
2023/05/04 10:28:00;;;;;;;0.82;0.82;;;;;;;;;;4977785;28;20077;-78
2023/05/04 10:30:27;;;;;;;2.97;0.70;;;;;;;;;;4975001;28;20217;-78
2023/05/04 10:32:56;;;;;;;1.00;0.90;;;;;;;;;;4977357;28;20049;-77
2023/05/04 10:35:22;;;;;;;1.13;0.85;;;;;;;;;;4977724;28;20037;-77
2023/05/04 10:37:55;;;;;;;0.50;0.50;;;;;;;;;;4974349;28;20022;-77
2023/05/04 10:40:35;;;;;;;1.17;1.00;;;;;;;;;;4973616;28;20021;-77
2023/05/04 10:43:01;;;;;;;1.20;0.90;;;;;;;;;;4970242;28;20477;-76
2023/05/04 10:45:37;;;;;;;0.50;0.50;;;;;;;;;;4966038;28;20038;-76
2023/05/04 10:48:03;;;;;;;2.25;1.15;;;;;;;;;;4974811;28;20096;-77
2023/05/04 10:50:40;;;;;;;0.70;0.70;;;;;;;;;;4970551;28;20011;-77
2023/05/04 10:53:06;;;;;;;2.17;0.70;;;;;;;;;;4972752;28;20066;-78
2023/05/04 10:55:39;;;;;;;1.17;0.70;;;;;;;;;;4976522;28;20093;-77
2023/05/04 10:58:05;;;;;;;0.98;0.63;;;;;;;;;;4982316;28;20030;-77
2023/05/04 11:00:38;;;;;;;0.93;0.68;;;;;;;;;;4967542;28;20103;-78
2023/05/04 11:03:06;;;;;;;0.75;0.70;;;;;;;;;;4974781;28;20296;-77
2023/05/04 11:05:42;;;;;;;2.08;0.80;;;;;;;;;;4975142;28;20035;-77
2023/05/04 11:08:21;;;;;;;0.50;0.50;;;;;;;;;;4982062;28;20037;-77
2023/05/04 11:10:48;;;;;;;0.60;0.60;;;;;;;;;;4971442;28;20030;-78
2023/05/04 11:13:17;;;;;;;0.68;0.50;;;;;;;;;;4966142;28;20035;-78
2023/05/04 11:15:50;;;;;;;0.60;0.60;;;;;;;;;;4968753;28;20562;-78
2023/05/04 11:18:33;;;;;;;0.60;0.60;;;;;;;;;;4969499;28;20042;-78
2023/05/04 11:21:00;;;;;;;1.13;0.80;;;;;;;;;;4976247;28;20038;-77
2023/05/04 11:23:27;;;;;;;0.60;0.60;;;;;;;;;;4983998;28;20033;-77
2023/05/04 11:25:53;;;;;;;1.33;0.70;;;;;;;;;;4984862;28;20030;-77
2023/05/04 11:28:19;;;;;;;1.10;0.60;;;;;;;;;;4985123;28;20381;-78
2023/05/04 11:30:46;;;;;;;0.63;0.63;;;;;;;;;;4968744;28;20113;-78
2023/05/04 11:33:16;;;;;;;1.02;0.90;;;;;;;;;;4989699;28;20033;-77
2023/05/04 11:35:42;;;;;;;2.45;0.90;;;;;;;;;;4988491;28;20439;-78
2023/05/04 11:38:08;;;;;;;1.45;0.90;;;;;;;;;;4989075;28;20169;-78
2023/05/04 11:40:35;;;;;;;1.83;0.90;;;;;;;;;;4986418;28;20026;-78
2023/05/04 11:43:02;;;;;;;0.80;0.80;;;;;;;;;;4989975;28;20026;-77
2023/05/04 11:45:32;;;;;;;1.60;0.88;;;;;;;;;;4991152;28;20027;-78
2023/05/04 11:47:59;;;;;;;1.07;0.80;;;;;;;;;;4987731;28;20022;-78
2023/05/04 11:50:25;;;;;;;1.30;0.90;;;;;;;;;;4986821;28;20385;-77
2023/05/04 11:53:02;;;;;;;2.03;1.02;;;;;;;;;;4988366;28;20057;-78
2023/05/04 11:55:31;;;;;;;1.50;0.70;;;;;;;;;;4989363;28;20484;-77
2023/05/04 11:57:57;;;;;;;1.20;1.00;;;;;;;;;;4981932;28;20027;-77
2023/05/04 12:00:34;;;;;;;0.80;0.80;;;;;;;;;;4988530;28;20149;-78
2023/05/04 12:03:00;;;;;;;1.30;0.85;;;;;;;;;;4989989;28;20395;-86
2023/05/04 12:05:27;;;;;;;3.28;0.80;;;;;;;;;;4989228;28;20053;-84
2023/05/04 12:07:53;;;;;;;1.60;0.85;;;;;;;;;;4975129;28;20464;-80
2023/05/04 12:10:26;;;;;;;1.02;0.93;;;;;;;;;;4986676;28;20022;-79
2023/05/04 12:12:52;;;;;;;1.75;1.00;;;;;;;;;;4975025;28;20124;-80
2023/05/04 12:15:27;;;;;;;1.35;1.23;;;;;;;;;;4983286;28;20684;-79
2023/05/04 12:17:53;;;;;;;1.88;0.98;;;;;;;;;;4984250;28;20043;-81
2023/05/04 12:20:29;;;;;;;1.45;1.10;;;;;;;;;;4981551;28;20045;-85
2023/05/04 12:22:56;;;;;;;1.48;1.13;;;;;;;;;;4984430;28;20500;-79
2023/05/04 12:25:22;;;;;;;1.92;1.20;;;;;;;;;;4984176;28;20033;-81
2023/05/04 12:27:48;;;;;;;6.88;3.33;;;;;;;;;;4977224;28;20037;-80
2023/05/04 12:30:14;;;;;;;15.50;8.02;;;;;;;;;;4979132;28;20262;-79
2023/05/04 12:32:41;;;;;;;22.98;7.90;;;;;;;;;;4984862;28;20057;-78
2023/05/04 12:35:08;;;;;;;24.33;9.75;;;;;;;;;;4977852;28;20029;-78
2023/05/04 12:37:34;;;;;;;27.20;10.75;;;;;;;;;;4982129;28;20500;-81
2023/05/04 12:40:00;;;;;;;29.05;11.55;;;;;;;;;;4986237;28;20038;-80
2023/05/04 12:42:26;;;;;;;35.65;12.20;;;;;;;;;;4985837;28;20822;-79
2023/05/04 12:44:52;;;;;;;35.10;12.60;;;;;;;;;;4976529;28;20027;-79
2023/05/04 12:47:19;;;;;;;30.27;11.45;;;;;;;;;;4982733;28;20078;-79
2023/05/04 12:49:45;;;;;;;22.27;9.55;;;;;;;;;;4984213;28;20026;-80
2023/05/04 12:52:12;;;;;;;29.05;9.35;;;;;;;;;;4978307;28;20383;-77
2023/05/04 12:54:38;;;;;;;23.42;8.43;;;;;;;;;;4985024;28;20485;-75
2023/05/04 12:57:03;;;;;;;22.58;8.45;;;;;;;;;;4988919;28;20034;-76
2023/05/04 12:59:29;;;;;;;21.10;7.93;;;;;;;;;;4986272;28;20614;-77
2023/05/04 13:01:55;;;;;;;19.52;6.15;;;;;;;;;;4985382;28;20029;-76
2023/05/04 13:04:22;;;;;;;26.77;7.18;;;;;;;;;;4983782;28;20401;-76
2023/05/04 13:06:48;;;;;;;17.40;5.22;;;;;;;;;;4977018;28;20018;-78
2023/05/04 13:09:14;;;;;;;11.20;4.93;;;;;;;;;;4989155;28;20563;-77
2023/05/04 13:11:40;;;;;;;12.55;5.38;;;;;;;;;;4982332;28;20366;-77
2023/05/04 13:14:07;;;;;;;12.35;5.20;;;;;;;;;;4978890;28;20054;-77
2023/05/04 13:16:33;;;;;;;9.57;4.00;;;;;;;;;;4983091;28;20032;-76
2023/05/04 13:18:59;;;;;;;15.95;4.70;;;;;;;;;;4986272;28;20026;-78
2023/05/04 13:21:25;;;;;;;11.40;5.38;;;;;;;;;;4979035;28;20026;-77
2023/05/04 13:23:51;;;;;;;9.07;4.47;;;;;;;;;;4987903;28;20030;-78
2023/05/04 13:26:17;;;;;;;9.45;4.80;;;;;;;;;;4985574;28;20022;-80
2023/05/04 13:28:43;;;;;;;13.40;5.47;;;;;;;;;;4983233;28;20052;-76
2023/05/04 13:31:09;;;;;;;12.32;4.43;;;;;;;;;;4985768;28;20018;-77
2023/05/04 13:33:38;;;;;;;10.63;3.92;;;;;;;;;;4988263;28;20030;-77
2023/05/04 13:36:05;;;;;;;8.52;3.80;;;;;;;;;;4984867;28;20389;-73
2023/05/04 13:38:32;;;;;;;8.57;3.35;;;;;;;;;;4982371;28;20714;-78
2023/05/04 13:40:58;;;;;;;11.90;3.83;;;;;;;;;;4984484;28;20133;-79
2023/05/04 13:43:24;;;;;;;7.90;3.45;;;;;;;;;;4982442;28;20116;-79
2023/05/04 13:45:50;;;;;;;9.50;3.53;;;;;;;;;;4982929;28;20129;-79
2023/05/04 13:48:16;;;;;;;7.00;2.78;;;;;;;;;;4982582;28;20030;-81
2023/05/04 13:50:42;;;;;;;8.77;3.47;;;;;;;;;;4985274;28;20026;-81
2023/05/04 13:53:11;;;;;;;6.03;3.60;;;;;;;;;;4986186;28;20039;-80
2023/05/04 13:55:37;;;;;;;6.20;3.30;;;;;;;;;;4986695;28;20126;-78
2023/05/04 13:58:03;;;;;;;7.35;3.10;;;;;;;;;;4980541;28;20109;-80
2023/05/04 14:00:29;;;;;;;9.27;3.90;;;;;;;;;;4979487;28;20509;-79
2023/05/04 14:02:55;;;;;;;10.15;3.85;;;;;;;;;;4973148;28;20604;-79
2023/05/04 14:05:21;;;;;;;7.25;3.33;;;;;;;;;;4977105;28;20034;-79
2023/05/04 14:07:47;;;;;;;7.43;2.90;;;;;;;;;;4986676;28;20379;-79
2023/05/04 14:10:13;;;;;;;9.85;3.58;;;;;;;;;;4988948;28;20029;-80
2023/05/04 14:12:39;;;;;;;6.13;2.28;;;;;;;;;;4986658;28;20030;-79
2023/05/04 14:15:06;;;;;;;8.15;3.83;;;;;;;;;;4989677;28;20532;-81
2023/05/04 14:17:32;;;;;;;4.68;2.47;;;;;;;;;;4980757;28;20705;-84
2023/05/04 14:19:58;;;;;;;7.78;3.42;;;;;;;;;;4981684;28;20025;-83
2023/05/04 14:22:24;;;;;;;9.18;3.20;;;;;;;;;;4976204;28;20037;-80
2023/05/04 14:24:50;;;;;;;5.88;2.58;;;;;;;;;;4973680;28;20031;-81
2023/05/04 14:27:16;;;;;;;9.63;3.10;;;;;;;;;;4979459;28;20082;-81
2023/05/04 14:29:42;;;;;;;4.25;2.45;;;;;;;;;;4982496;28;20076;-79
2023/05/04 14:32:08;;;;;;;5.20;2.30;;;;;;;;;;4985040;28;20022;-83
2023/05/04 14:34:35;;;;;;;4.55;2.25;;;;;;;;;;4973837;28;20403;-82
2023/05/04 14:37:01;;;;;;;8.10;2.78;;;;;;;;;;4981001;28;20025;-85
2023/05/04 14:39:35;;;;;;;4.50;2.28;;;;;;;;;;4981430;28;20037;-84